sensor_id;sensor_type;location;lat;lon;timestamp;P1;durP1;ratioP1;P2;durP2;ratioP2
15230;SDS011;32569;51.762;8.564;2023-12-07T00:00:33;11.40;;;10.40;;
15230;SDS011;32569;51.762;8.564;2023-12-07T00:03:00;11.10;;;10.00;;
15230;SDS011;32569;51.762;8.564;2023-12-07T00:05:26;11.70;;;10.73;;
15230;SDS011;32569;51.762;8.564;2023-12-07T00:07:53;11.40;;;10.50;;
15230;SDS011;32569;51.762;8.564;2023-12-07T00:10:21;11.60;;;10.60;;
15230;SDS011;32569;51.762;8.564;2023-12-07T00:12:50;11.73;;;10.83;;
15230;SDS011;32569;51.762;8.564;2023-12-07T00:15:17;10.80;;;9.90;;
15230;SDS011;32569;51.762;8.564;2023-12-07T00:17:44;11.27;;;10.43;;
15230;SDS011;32569;51.762;8.564;2023-12-07T00:20:10;11.60;;;10.70;;
15230;SDS011;32569;51.762;8.564;2023-12-07T00:22:37;10.57;;;9.73;;
15230;SDS011;32569;51.762;8.564;2023-12-07T00:25:04;11.00;;;10.10;;
15230;SDS011;32569;51.762;8.564;2023-12-07T00:27:33;10.60;;;9.70;;
15230;SDS011;32569;51.762;8.564;2023-12-07T00:30:00;10.13;;;9.33;;
15230;SDS011;32569;51.762;8.564;2023-12-07T00:32:26;11.33;;;10.13;;
15230;SDS011;32569;51.762;8.564;2023-12-07T00:34:53;10.57;;;9.70;;
15230;SDS011;32569;51.762;8.564;2023-12-07T00:37:20;9.90;;;9.00;;
15230;SDS011;32569;51.762;8.564;2023-12-07T00:39:46;9.87;;;9.03;;
15230;SDS011;32569;51.762;8.564;2023-12-07T00:42:16;11.00;;;10.10;;
15230;SDS011;32569;51.762;8.564;2023-12-07T00:44:46;10.43;;;9.13;;
15230;SDS011;32569;51.762;8.564;2023-12-07T00:47:15;10.07;;;9.27;;
15230;SDS011;32569;51.762;8.564;2023-12-07T00:49:42;10.50;;;9.60;;
15230;SDS011;32569;51.762;8.564;2023-12-07T00:52:08;9.77;;;8.97;;
15230;SDS011;32569;51.762;8.564;2023-12-07T00:54:35;10.20;;;9.43;;
15230;SDS011;32569;51.762;8.564;2023-12-07T00:57:02;11.53;;;10.63;;
15230;SDS011;32569;51.762;8.564;2023-12-07T00:59:28;10.67;;;9.77;;
15230;SDS011;32569;51.762;8.564;2023-12-07T01:02:00;10.40;;;9.60;;
15230;SDS011;32569;51.762;8.564;2023-12-07T01:04:27;10.03;;;9.23;;
15230;SDS011;32569;51.762;8.564;2023-12-07T01:06:54;10.80;;;10.00;;
15230;SDS011;32569;51.762;8.564;2023-12-07T01:09:20;10.80;;;10.00;;
15230;SDS011;32569;51.762;8.564;2023-12-07T01:11:47;10.30;;;9.50;;
15230;SDS011;32569;51.762;8.564;2023-12-07T01:14:17;10.03;;;9.23;;
15230;SDS011;32569;51.762;8.564;2023-12-07T01:16:47;10.03;;;9.23;;
15230;SDS011;32569;51.762;8.564;2023-12-07T01:19:15;9.70;;;8.90;;
15230;SDS011;32569;51.762;8.564;2023-12-07T01:21:42;10.03;;;9.23;;
15230;SDS011;32569;51.762;8.564;2023-12-07T01:24:08;9.63;;;8.90;;
15230;SDS011;32569;51.762;8.564;2023-12-07T01:26:35;10.23;;;9.33;;
15230;SDS011;32569;51.762;8.564;2023-12-07T01:29:02;10.10;;;9.30;;
15230;SDS011;32569;51.762;8.564;2023-12-07T01:31:31;9.47;;;8.77;;
15230;SDS011;32569;51.762;8.564;2023-12-07T01:34:01;10.00;;;9.20;;
15230;SDS011;32569;51.762;8.564;2023-12-07T01:36:29;9.60;;;8.83;;
15230;SDS011;32569;51.762;8.564;2023-12-07T01:38:55;9.60;;;8.80;;
15230;SDS011;32569;51.762;8.564;2023-12-07T01:41:22;9.90;;;9.00;;
15230;SDS011;32569;51.762;8.564;2023-12-07T01:43:48;10.00;;;9.17;;
15230;SDS011;32569;51.762;8.564;2023-12-07T01:46:15;9.80;;;9.03;;
15230;SDS011;32569;51.762;8.564;2023-12-07T01:48:43;9.73;;;8.93;;
15230;SDS011;32569;51.762;8.564;2023-12-07T01:51:13;10.20;;;9.40;;
15230;SDS011;32569;51.762;8.564;2023-12-07T01:53:45;9.20;;;8.40;;
15230;SDS011;32569;51.762;8.564;2023-12-07T01:56:13;9.70;;;8.90;;
15230;SDS011;32569;51.762;8.564;2023-12-07T01:58:41;9.77;;;8.87;;
15230;SDS011;32569;51.762;8.564;2023-12-07T02:01:07;9.70;;;8.80;;
15230;SDS011;32569;51.762;8.564;2023-12-07T02:03:36;8.50;;;7.90;;
15230;SDS011;32569;51.762;8.564;2023-12-07T02:06:05;9.63;;;8.73;;
15230;SDS011;32569;51.762;8.564;2023-12-07T02:08:33;10.13;;;9.33;;
15230;SDS011;32569;51.762;8.564;2023-12-07T02:11:01;9.43;;;8.67;;
15230;SDS011;32569;51.762;8.564;2023-12-07T02:13:28;9.37;;;8.53;;
15230;SDS011;32569;51.762;8.564;2023-12-07T02:15:55;10.50;;;9.60;;
15230;SDS011;32569;51.762;8.564;2023-12-07T02:18:24;9.60;;;8.80;;
15230;SDS011;32569;51.762;8.564;2023-12-07T02:21:01;9.57;;;8.83;;
15230;SDS011;32569;51.762;8.564;2023-12-07T02:23:34;10.17;;;9.27;;
15230;SDS011;32569;51.762;8.564;2023-12-07T02:26:04;10.07;;;9.17;;
15230;SDS011;32569;51.762;8.564;2023-12-07T02:28:38;10.27;;;9.37;;
15230;SDS011;32569;51.762;8.564;2023-12-07T02:31:12;10.20;;;9.30;;
15230;SDS011;32569;51.762;8.564;2023-12-07T02:33:38;9.67;;;8.93;;
15230;SDS011;32569;51.762;8.564;2023-12-07T02:36:05;9.73;;;9.03;;
15230;SDS011;32569;51.762;8.564;2023-12-07T02:38:39;10.17;;;9.17;;
15230;SDS011;32569;51.762;8.564;2023-12-07T02:41:07;9.73;;;8.73;;
15230;SDS011;32569;51.762;8.564;2023-12-07T02:43:37;9.17;;;8.43;;
15230;SDS011;32569;51.762;8.564;2023-12-07T02:46:03;9.90;;;9.00;;
15230;SDS011;32569;51.762;8.564;2023-12-07T02:48:30;9.60;;;8.80;;
15230;SDS011;32569;51.762;8.564;2023-12-07T02:50:57;9.43;;;8.60;;
15230;SDS011;32569;51.762;8.564;2023-12-07T02:53:23;9.43;;;8.63;;
15230;SDS011;32569;51.762;8.564;2023-12-07T02:55:50;9.43;;;8.67;;
15230;SDS011;32569;51.762;8.564;2023-12-07T02:58:17;9.13;;;8.37;;
15230;SDS011;32569;51.762;8.564;2023-12-07T03:00:45;9.10;;;8.40;;
15230;SDS011;32569;51.762;8.564;2023-12-07T03:03:11;9.00;;;8.20;;
15230;SDS011;32569;51.762;8.564;2023-12-07T03:05:38;8.73;;;8.03;;
15230;SDS011;32569;51.762;8.564;2023-12-07T03:08:05;9.80;;;8.90;;
15230;SDS011;32569;51.762;8.564;2023-12-07T03:10:34;9.03;;;8.33;;
15230;SDS011;32569;51.762;8.564;2023-12-07T03:13:01;9.33;;;8.60;;
15230;SDS011;32569;51.762;8.564;2023-12-07T03:15:27;9.70;;;8.90;;
15230;SDS011;32569;51.762;8.564;2023-12-07T03:17:55;10.17;;;9.27;;
15230;SDS011;32569;51.762;8.564;2023-12-07T03:20:22;10.77;;;9.83;;
15230;SDS011;32569;51.762;8.564;2023-12-07T03:22:48;10.67;;;9.77;;
15230;SDS011;32569;51.762;8.564;2023-12-07T03:25:15;10.17;;;9.37;;
15230;SDS011;32569;51.762;8.564;2023-12-07T03:27:42;11.40;;;10.50;;
15230;SDS011;32569;51.762;8.564;2023-12-07T03:30:09;11.40;;;10.40;;
15230;SDS011;32569;51.762;8.564;2023-12-07T03:32:36;12.10;;;10.70;;
15230;SDS011;32569;51.762;8.564;2023-12-07T03:35:04;11.17;;;10.27;;
15230;SDS011;32569;51.762;8.564;2023-12-07T03:37:31;10.87;;;10.07;;
15230;SDS011;32569;51.762;8.564;2023-12-07T03:39:58;10.87;;;9.97;;
15230;SDS011;32569;51.762;8.564;2023-12-07T03:42:29;10.23;;;9.33;;
15230;SDS011;32569;51.762;8.564;2023-12-07T03:44:58;11.53;;;10.53;;
15230;SDS011;32569;51.762;8.564;2023-12-07T03:47:25;10.83;;;9.90;;
15230;SDS011;32569;51.762;8.564;2023-12-07T03:49:51;10.50;;;9.60;;
15230;SDS011;32569;51.762;8.564;2023-12-07T03:52:22;11.20;;;10.30;;
15230;SDS011;32569;51.762;8.564;2023-12-07T03:54:48;10.77;;;9.87;;
15230;SDS011;32569;51.762;8.564;2023-12-07T03:57:15;11.03;;;10.13;;
15230;SDS011;32569;51.762;8.564;2023-12-07T03:59:41;11.30;;;10.40;;
15230;SDS011;32569;51.762;8.564;2023-12-07T04:02:08;12.73;;;11.50;;
15230;SDS011;32569;51.762;8.564;2023-12-07T04:04:35;11.83;;;10.83;;
15230;SDS011;32569;51.762;8.564;2023-12-07T04:07:03;11.47;;;10.47;;
15230;SDS011;32569;51.762;8.564;2023-12-07T04:09:31;11.13;;;10.23;;
15230;SDS011;32569;51.762;8.564;2023-12-07T04:11:58;11.07;;;10.07;;
15230;SDS011;32569;51.762;8.564;2023-12-07T04:14:24;11.70;;;10.60;;
15230;SDS011;32569;51.762;8.564;2023-12-07T04:16:51;11.53;;;10.57;;
15230;SDS011;32569;51.762;8.564;2023-12-07T04:19:17;11.50;;;10.50;;
15230;SDS011;32569;51.762;8.564;2023-12-07T04:21:44;11.37;;;10.27;;
15230;SDS011;32569;51.762;8.564;2023-12-07T04:24:11;12.10;;;11.00;;
15230;SDS011;32569;51.762;8.564;2023-12-07T04:26:39;11.50;;;10.50;;
15230;SDS011;32569;51.762;8.564;2023-12-07T04:29:05;11.97;;;10.87;;
15230;SDS011;32569;51.762;8.564;2023-12-07T04:31:32;12.37;;;11.27;;
15230;SDS011;32569;51.762;8.564;2023-12-07T04:34:00;11.83;;;10.77;;
15230;SDS011;32569;51.762;8.564;2023-12-07T04:36:27;11.40;;;10.40;;
15230;SDS011;32569;51.762;8.564;2023-12-07T04:38:54;11.77;;;10.77;;
15230;SDS011;32569;51.762;8.564;2023-12-07T04:41:20;11.10;;;10.13;;
15230;SDS011;32569;51.762;8.564;2023-12-07T04:43:48;11.47;;;10.47;;
15230;SDS011;32569;51.762;8.564;2023-12-07T04:46:15;11.03;;;10.03;;
15230;SDS011;32569;51.762;8.564;2023-12-07T04:48:41;11.27;;;10.33;;
15230;SDS011;32569;51.762;8.564;2023-12-07T04:51:08;11.47;;;10.37;;
15230;SDS011;32569;51.762;8.564;2023-12-07T04:53:34;11.60;;;10.60;;
15230;SDS011;32569;51.762;8.564;2023-12-07T04:56:01;11.57;;;10.47;;
15230;SDS011;32569;51.762;8.564;2023-12-07T04:58:28;11.60;;;10.60;;
15230;SDS011;32569;51.762;8.564;2023-12-07T05:00:59;11.77;;;10.67;;
15230;SDS011;32569;51.762;8.564;2023-12-07T05:03:25;11.83;;;10.70;;
15230;SDS011;32569;51.762;8.564;2023-12-07T05:05:52;11.10;;;10.10;;
15230;SDS011;32569;51.762;8.564;2023-12-07T05:08:19;12.07;;;10.87;;
15230;SDS011;32569;51.762;8.564;2023-12-07T05:10:45;11.60;;;10.60;;
15230;SDS011;32569;51.762;8.564;2023-12-07T05:13:12;10.83;;;9.83;;
15230;SDS011;32569;51.762;8.564;2023-12-07T05:15:38;11.23;;;10.20;;
15230;SDS011;32569;51.762;8.564;2023-12-07T05:18:07;11.07;;;10.07;;
15230;SDS011;32569;51.762;8.564;2023-12-07T05:20:34;11.10;;;10.20;;
15230;SDS011;32569;51.762;8.564;2023-12-07T05:23:04;10.80;;;9.80;;
15230;SDS011;32569;51.762;8.564;2023-12-07T05:25:31;10.90;;;9.93;;
15230;SDS011;32569;51.762;8.564;2023-12-07T05:27:58;11.60;;;10.47;;
15230;SDS011;32569;51.762;8.564;2023-12-07T05:30:24;11.50;;;10.60;;
15230;SDS011;32569;51.762;8.564;2023-12-07T05:32:52;11.43;;;10.43;;
15230;SDS011;32569;51.762;8.564;2023-12-07T05:35:21;11.77;;;10.67;;
15230;SDS011;32569;51.762;8.564;2023-12-07T05:37:48;10.57;;;9.67;;
15230;SDS011;32569;51.762;8.564;2023-12-07T05:40:15;11.27;;;10.27;;
15230;SDS011;32569;51.762;8.564;2023-12-07T05:42:42;11.60;;;10.50;;
15230;SDS011;32569;51.762;8.564;2023-12-07T05:45:08;10.93;;;9.83;;
15230;SDS011;32569;51.762;8.564;2023-12-07T05:47:35;12.10;;;11.00;;
15230;SDS011;32569;51.762;8.564;2023-12-07T05:50:02;11.03;;;10.07;;
15230;SDS011;32569;51.762;8.564;2023-12-07T05:52:30;11.33;;;10.33;;
15230;SDS011;32569;51.762;8.564;2023-12-07T05:54:57;11.03;;;10.03;;
15230;SDS011;32569;51.762;8.564;2023-12-07T05:57:24;11.57;;;10.57;;
15230;SDS011;32569;51.762;8.564;2023-12-07T05:59:50;12.00;;;11.00;;
15230;SDS011;32569;51.762;8.564;2023-12-07T06:02:17;11.20;;;10.27;;
15230;SDS011;32569;51.762;8.564;2023-12-07T06:04:43;10.43;;;9.53;;
15230;SDS011;32569;51.762;8.564;2023-12-07T06:07:10;10.47;;;9.57;;
15230;SDS011;32569;51.762;8.564;2023-12-07T06:09:38;10.70;;;9.80;;
15230;SDS011;32569;51.762;8.564;2023-12-07T06:12:06;11.17;;;10.07;;
15230;SDS011;32569;51.762;8.564;2023-12-07T06:14:33;11.27;;;10.27;;
15230;SDS011;32569;51.762;8.564;2023-12-07T06:16:59;10.87;;;9.97;;
15230;SDS011;32569;51.762;8.564;2023-12-07T06:19:26;10.83;;;9.83;;
15230;SDS011;32569;51.762;8.564;2023-12-07T06:21:53;10.70;;;9.80;;
15230;SDS011;32569;51.762;8.564;2023-12-07T06:24:19;10.70;;;9.80;;
15230;SDS011;32569;51.762;8.564;2023-12-07T06:26:49;11.40;;;10.43;;
15230;SDS011;32569;51.762;8.564;2023-12-07T06:29:17;11.23;;;10.23;;
15230;SDS011;32569;51.762;8.564;2023-12-07T06:31:43;10.67;;;9.77;;
15230;SDS011;32569;51.762;8.564;2023-12-07T06:34:10;10.57;;;9.70;;
15230;SDS011;32569;51.762;8.564;2023-12-07T06:36:37;9.93;;;9.03;;
15230;SDS011;32569;51.762;8.564;2023-12-07T06:39:03;11.13;;;10.20;;
15230;SDS011;32569;51.762;8.564;2023-12-07T06:41:30;11.10;;;10.20;;
15230;SDS011;32569;51.762;8.564;2023-12-07T06:43:59;11.00;;;10.00;;
15230;SDS011;32569;51.762;8.564;2023-12-07T06:46:26;11.23;;;9.67;;
15230;SDS011;32569;51.762;8.564;2023-12-07T06:48:52;10.50;;;9.57;;
15230;SDS011;32569;51.762;8.564;2023-12-07T06:51:19;10.97;;;10.07;;
15230;SDS011;32569;51.762;8.564;2023-12-07T06:53:46;11.57;;;10.63;;
15230;SDS011;32569;51.762;8.564;2023-12-07T06:56:13;10.87;;;9.90;;
15230;SDS011;32569;51.762;8.564;2023-12-07T06:58:40;10.67;;;9.77;;
15230;SDS011;32569;51.762;8.564;2023-12-07T07:01:08;12.57;;;11.30;;
15230;SDS011;32569;51.762;8.564;2023-12-07T07:03:34;11.60;;;10.50;;
15230;SDS011;32569;51.762;8.564;2023-12-07T07:06:01;12.27;;;10.77;;
15230;SDS011;32569;51.762;8.564;2023-12-07T07:08:27;12.20;;;11.03;;
15230;SDS011;32569;51.762;8.564;2023-12-07T07:10:55;11.93;;;10.80;;
15230;SDS011;32569;51.762;8.564;2023-12-07T07:13:22;12.57;;;11.40;;
15230;SDS011;32569;51.762;8.564;2023-12-07T07:15:48;12.70;;;11.13;;
15230;SDS011;32569;51.762;8.564;2023-12-07T07:18:16;13.13;;;11.83;;
15230;SDS011;32569;51.762;8.564;2023-12-07T07:20:48;17.97;;;11.33;;
15230;SDS011;32569;51.762;8.564;2023-12-07T07:23:16;13.63;;;10.80;;
15230;SDS011;32569;51.762;8.564;2023-12-07T07:25:43;17.97;;;11.50;;
15230;SDS011;32569;51.762;8.564;2023-12-07T07:28:10;11.33;;;10.33;;
15230;SDS011;32569;51.762;8.564;2023-12-07T07:30:36;11.43;;;10.43;;
15230;SDS011;32569;51.762;8.564;2023-12-07T07:33:03;11.93;;;10.80;;
15230;SDS011;32569;51.762;8.564;2023-12-07T07:35:31;12.87;;;11.57;;
15230;SDS011;32569;51.762;8.564;2023-12-07T07:37:58;11.63;;;10.50;;
15230;SDS011;32569;51.762;8.564;2023-12-07T07:40:24;11.73;;;10.60;;
15230;SDS011;32569;51.762;8.564;2023-12-07T07:42:51;12.37;;;11.27;;
15230;SDS011;32569;51.762;8.564;2023-12-07T07:45:18;12.90;;;11.70;;
15230;SDS011;32569;51.762;8.564;2023-12-07T07:47:44;12.90;;;11.70;;
15230;SDS011;32569;51.762;8.564;2023-12-07T07:50:11;11.77;;;10.73;;
15230;SDS011;32569;51.762;8.564;2023-12-07T07:52:39;12.17;;;10.97;;
15230;SDS011;32569;51.762;8.564;2023-12-07T07:55:06;12.37;;;11.20;;
15230;SDS011;32569;51.762;8.564;2023-12-07T07:57:33;11.73;;;10.63;;
15230;SDS011;32569;51.762;8.564;2023-12-07T08:00:00;12.23;;;11.10;;
15230;SDS011;32569;51.762;8.564;2023-12-07T08:02:26;12.00;;;10.87;;
15230;SDS011;32569;51.762;8.564;2023-12-07T08:04:53;11.53;;;10.43;;
15230;SDS011;32569;51.762;8.564;2023-12-07T08:07:20;12.17;;;10.97;;
15230;SDS011;32569;51.762;8.564;2023-12-07T08:09:47;12.27;;;11.07;;
15230;SDS011;32569;51.762;8.564;2023-12-07T08:12:14;11.73;;;10.63;;
15230;SDS011;32569;51.762;8.564;2023-12-07T08:14:41;12.60;;;11.30;;
15230;SDS011;32569;51.762;8.564;2023-12-07T08:17:11;11.23;;;9.97;;
15230;SDS011;32569;51.762;8.564;2023-12-07T08:19:37;11.73;;;10.50;;
15230;SDS011;32569;51.762;8.564;2023-12-07T08:22:04;13.13;;;11.93;;
15230;SDS011;32569;51.762;8.564;2023-12-07T08:24:31;13.27;;;11.87;;
15230;SDS011;32569;51.762;8.564;2023-12-07T08:26:59;12.37;;;11.17;;
15230;SDS011;32569;51.762;8.564;2023-12-07T08:29:25;12.70;;;11.50;;
15230;SDS011;32569;51.762;8.564;2023-12-07T08:31:52;12.47;;;11.30;;
15230;SDS011;32569;51.762;8.564;2023-12-07T08:34:19;14.07;;;12.77;;
15230;SDS011;32569;51.762;8.564;2023-12-07T08:36:45;13.40;;;12.10;;
15230;SDS011;32569;51.762;8.564;2023-12-07T08:39:12;13.87;;;12.67;;
15230;SDS011;32569;51.762;8.564;2023-12-07T08:41:39;13.17;;;11.97;;
15230;SDS011;32569;51.762;8.564;2023-12-07T08:44:07;14.03;;;12.77;;
15230;SDS011;32569;51.762;8.564;2023-12-07T08:46:34;13.57;;;12.30;;
15230;SDS011;32569;51.762;8.564;2023-12-07T08:49:01;12.40;;;11.30;;
15230;SDS011;32569;51.762;8.564;2023-12-07T08:51:28;12.80;;;11.60;;
15230;SDS011;32569;51.762;8.564;2023-12-07T08:53:55;12.10;;;10.90;;
15230;SDS011;32569;51.762;8.564;2023-12-07T08:56:22;11.83;;;10.77;;
15230;SDS011;32569;51.762;8.564;2023-12-07T08:58:48;12.07;;;10.97;;
15230;SDS011;32569;51.762;8.564;2023-12-07T09:01:19;11.87;;;10.73;;
15230;SDS011;32569;51.762;8.564;2023-12-07T09:03:45;12.13;;;10.93;;
15230;SDS011;32569;51.762;8.564;2023-12-07T09:06:12;11.93;;;10.87;;
15230;SDS011;32569;51.762;8.564;2023-12-07T09:08:39;11.20;;;10.10;;
15230;SDS011;32569;51.762;8.564;2023-12-07T09:11:05;11.97;;;10.87;;
15230;SDS011;32569;51.762;8.564;2023-12-07T09:13:33;14.40;;;11.07;;
15230;SDS011;32569;51.762;8.564;2023-12-07T09:16:00;12.33;;;11.23;;
15230;SDS011;32569;51.762;8.564;2023-12-07T09:18:28;12.27;;;11.00;;
15230;SDS011;32569;51.762;8.564;2023-12-07T09:20:54;12.50;;;11.30;;
15230;SDS011;32569;51.762;8.564;2023-12-07T09:23:21;12.17;;;11.00;;
15230;SDS011;32569;51.762;8.564;2023-12-07T09:25:47;12.33;;;11.23;;
15230;SDS011;32569;51.762;8.564;2023-12-07T09:28:14;11.67;;;10.50;;
15230;SDS011;32569;51.762;8.564;2023-12-07T09:30:41;12.80;;;11.60;;
15230;SDS011;32569;51.762;8.564;2023-12-07T09:33:07;11.77;;;10.57;;
15230;SDS011;32569;51.762;8.564;2023-12-07T09:35:35;12.83;;;11.53;;
15230;SDS011;32569;51.762;8.564;2023-12-07T09:38:02;11.30;;;10.30;;
15230;SDS011;32569;51.762;8.564;2023-12-07T09:40:29;11.73;;;10.63;;
15230;SDS011;32569;51.762;8.564;2023-12-07T09:42:56;10.27;;;9.37;;
15230;SDS011;32569;51.762;8.564;2023-12-07T09:45:23;11.40;;;10.00;;
15230;SDS011;32569;51.762;8.564;2023-12-07T09:47:50;11.20;;;10.20;;
15230;SDS011;32569;51.762;8.564;2023-12-07T09:50:18;11.43;;;10.43;;
15230;SDS011;32569;51.762;8.564;2023-12-07T09:52:48;10.37;;;9.37;;
15230;SDS011;32569;51.762;8.564;2023-12-07T09:55:17;10.47;;;9.47;;
15230;SDS011;32569;51.762;8.564;2023-12-07T09:57:45;11.50;;;10.40;;
15230;SDS011;32569;51.762;8.564;2023-12-07T10:00:12;11.93;;;10.77;;
15230;SDS011;32569;51.762;8.564;2023-12-07T10:02:40;11.20;;;10.20;;
15230;SDS011;32569;51.762;8.564;2023-12-07T10:05:08;11.27;;;10.37;;
15230;SDS011;32569;51.762;8.564;2023-12-07T10:07:39;10.97;;;9.97;;
15230;SDS011;32569;51.762;8.564;2023-12-07T10:10:11;10.93;;;10.03;;
15230;SDS011;32569;51.762;8.564;2023-12-07T10:12:43;11.00;;;10.03;;
15230;SDS011;32569;51.762;8.564;2023-12-07T10:15:12;10.10;;;9.20;;
15230;SDS011;32569;51.762;8.564;2023-12-07T10:17:43;10.43;;;9.37;;
15230;SDS011;32569;51.762;8.564;2023-12-07T10:20:14;10.57;;;9.57;;
15230;SDS011;32569;51.762;8.564;2023-12-07T10:22:42;10.10;;;9.20;;
15230;SDS011;32569;51.762;8.564;2023-12-07T10:25:11;10.47;;;9.47;;
15230;SDS011;32569;51.762;8.564;2023-12-07T10:27:39;9.73;;;8.80;;
15230;SDS011;32569;51.762;8.564;2023-12-07T10:30:08;8.97;;;8.17;;
15230;SDS011;32569;51.762;8.564;2023-12-07T10:32:36;9.87;;;8.97;;
15230;SDS011;32569;51.762;8.564;2023-12-07T10:35:09;9.87;;;8.87;;
15230;SDS011;32569;51.762;8.564;2023-12-07T10:37:37;9.53;;;8.73;;
15230;SDS011;32569;51.762;8.564;2023-12-07T10:40:05;9.70;;;8.90;;
15230;SDS011;32569;51.762;8.564;2023-12-07T10:42:34;9.10;;;8.30;;
15230;SDS011;32569;51.762;8.564;2023-12-07T10:45:04;9.73;;;8.83;;
15230;SDS011;32569;51.762;8.564;2023-12-07T10:47:32;9.23;;;8.50;;
15230;SDS011;32569;51.762;8.564;2023-12-07T10:50:03;9.47;;;8.77;;
15230;SDS011;32569;51.762;8.564;2023-12-07T10:52:35;9.17;;;8.10;;
15230;SDS011;32569;51.762;8.564;2023-12-07T10:55:03;8.90;;;8.20;;
15230;SDS011;32569;51.762;8.564;2023-12-07T10:57:35;8.93;;;8.17;;
15230;SDS011;32569;51.762;8.564;2023-12-07T11:00:06;8.40;;;7.67;;
15230;SDS011;32569;51.762;8.564;2023-12-07T11:02:34;8.47;;;7.77;;
15230;SDS011;32569;51.762;8.564;2023-12-07T11:05:02;8.83;;;8.03;;
15230;SDS011;32569;51.762;8.564;2023-12-07T11:07:32;7.70;;;7.10;;
15230;SDS011;32569;51.762;8.564;2023-12-07T11:10:07;8.33;;;7.73;;
15230;SDS011;32569;51.762;8.564;2023-12-07T11:12:41;8.27;;;7.50;;
15230;SDS011;32569;51.762;8.564;2023-12-07T11:15:15;8.90;;;8.20;;
15230;SDS011;32569;51.762;8.564;2023-12-07T11:17:52;8.23;;;7.43;;
15230;SDS011;32569;51.762;8.564;2023-12-07T11:20:20;8.57;;;7.80;;
15230;SDS011;32569;51.762;8.564;2023-12-07T11:22:48;8.77;;;7.97;;
15230;SDS011;32569;51.762;8.564;2023-12-07T11:25:16;9.43;;;8.53;;
15230;SDS011;32569;51.762;8.564;2023-12-07T11:27:45;7.97;;;7.37;;
15230;SDS011;32569;51.762;8.564;2023-12-07T11:30:13;7.90;;;7.30;;
15230;SDS011;32569;51.762;8.564;2023-12-07T11:32:40;7.67;;;6.97;;
15230;SDS011;32569;51.762;8.564;2023-12-07T11:35:11;7.63;;;7.03;;
15230;SDS011;32569;51.762;8.564;2023-12-07T11:40:28;7.10;;;6.60;;
15230;SDS011;32569;51.762;8.564;2023-12-07T11:42:57;6.90;;;6.40;;
15230;SDS011;32569;51.762;8.564;2023-12-07T11:45:41;7.47;;;6.87;;
15230;SDS011;32569;51.762;8.564;2023-12-07T11:48:09;6.87;;;6.30;;
15230;SDS011;32569;51.762;8.564;2023-12-07T11:50:43;6.23;;;5.73;;
15230;SDS011;32569;51.762;8.564;2023-12-07T11:53:23;6.60;;;6.10;;
15230;SDS011;32569;51.762;8.564;2023-12-07T11:55:50;6.63;;;6.13;;
15230;SDS011;32569;51.762;8.564;2023-12-07T11:58:18;6.20;;;5.70;;
15230;SDS011;32569;51.762;8.564;2023-12-07T12:00:45;5.77;;;5.33;;
15230;SDS011;32569;51.762;8.564;2023-12-07T12:03:12;6.40;;;5.90;;
15230;SDS011;32569;51.762;8.564;2023-12-07T12:05:40;5.33;;;4.93;;
15230;SDS011;32569;51.762;8.564;2023-12-07T12:08:08;5.83;;;5.33;;
15230;SDS011;32569;51.762;8.564;2023-12-07T12:10:34;4.83;;;4.50;;
15230;SDS011;32569;51.762;8.564;2023-12-07T12:13:01;5.60;;;5.20;;
15230;SDS011;32569;51.762;8.564;2023-12-07T12:15:30;5.47;;;5.07;;
15230;SDS011;32569;51.762;8.564;2023-12-07T12:17:57;5.33;;;5.00;;
15230;SDS011;32569;51.762;8.564;2023-12-07T12:20:24;4.93;;;4.63;;
15230;SDS011;32569;51.762;8.564;2023-12-07T12:22:51;5.13;;;4.73;;
15230;SDS011;32569;51.762;8.564;2023-12-07T12:25:19;5.57;;;5.17;;
15230;SDS011;32569;51.762;8.564;2023-12-07T12:27:47;4.53;;;4.20;;
15230;SDS011;32569;51.762;8.564;2023-12-07T12:30:15;4.57;;;4.27;;
15230;SDS011;32569;51.762;8.564;2023-12-07T12:32:45;4.80;;;4.40;;
15230;SDS011;32569;51.762;8.564;2023-12-07T12:35:12;4.47;;;4.17;;
15230;SDS011;32569;51.762;8.564;2023-12-07T12:37:40;4.30;;;4.00;;
15230;SDS011;32569;51.762;8.564;2023-12-07T12:40:08;4.23;;;3.93;;
15230;SDS011;32569;51.762;8.564;2023-12-07T12:42:36;4.50;;;4.10;;
15230;SDS011;32569;51.762;8.564;2023-12-07T12:45:04;4.33;;;3.93;;
15230;SDS011;32569;51.762;8.564;2023-12-07T12:47:31;3.60;;;3.40;;
15230;SDS011;32569;51.762;8.564;2023-12-07T12:50:01;3.67;;;3.37;;
15230;SDS011;32569;51.762;8.564;2023-12-07T12:52:29;4.43;;;4.07;;
15230;SDS011;32569;51.762;8.564;2023-12-07T12:54:56;3.63;;;3.33;;
15230;SDS011;32569;51.762;8.564;2023-12-07T12:57:23;3.90;;;3.60;;
15230;SDS011;32569;51.762;8.564;2023-12-07T12:59:50;4.13;;;3.83;;
15230;SDS011;32569;51.762;8.564;2023-12-07T13:02:18;4.60;;;4.20;;
15230;SDS011;32569;51.762;8.564;2023-12-07T13:04:45;3.53;;;3.23;;
15230;SDS011;32569;51.762;8.564;2023-12-07T13:07:13;3.97;;;3.70;;
15230;SDS011;32569;51.762;8.564;2023-12-07T13:09:40;4.10;;;3.73;;
15230;SDS011;32569;51.762;8.564;2023-12-07T13:12:08;4.10;;;3.80;;
15230;SDS011;32569;51.762;8.564;2023-12-07T13:14:38;4.30;;;4.00;;
15230;SDS011;32569;51.762;8.564;2023-12-07T13:17:05;3.83;;;3.53;;
15230;SDS011;32569;51.762;8.564;2023-12-07T13:19:33;5.37;;;4.97;;
15230;SDS011;32569;51.762;8.564;2023-12-07T13:21:59;4.00;;;3.70;;
15230;SDS011;32569;51.762;8.564;2023-12-07T13:24:29;3.60;;;3.40;;
15230;SDS011;32569;51.762;8.564;2023-12-07T13:26:56;4.53;;;4.23;;
15230;SDS011;32569;51.762;8.564;2023-12-07T13:29:25;3.90;;;3.60;;
15230;SDS011;32569;51.762;8.564;2023-12-07T13:31:51;3.50;;;3.30;;
15230;SDS011;32569;51.762;8.564;2023-12-07T13:34:18;4.13;;;3.83;;
15230;SDS011;32569;51.762;8.564;2023-12-07T13:36:46;3.80;;;3.50;;
15230;SDS011;32569;51.762;8.564;2023-12-07T13:39:13;4.57;;;4.10;;
15230;SDS011;32569;51.762;8.564;2023-12-07T13:41:41;4.97;;;4.57;;
15230;SDS011;32569;51.762;8.564;2023-12-07T13:44:08;4.27;;;3.97;;
15230;SDS011;32569;51.762;8.564;2023-12-07T13:46:35;4.13;;;3.83;;
15230;SDS011;32569;51.762;8.564;2023-12-07T13:49:02;5.90;;;5.30;;
15230;SDS011;32569;51.762;8.564;2023-12-07T13:51:29;4.50;;;4.10;;
15230;SDS011;32569;51.762;8.564;2023-12-07T13:53:55;3.80;;;3.50;;
15230;SDS011;32569;51.762;8.564;2023-12-07T13:56:22;3.90;;;3.60;;
15230;SDS011;32569;51.762;8.564;2023-12-07T13:58:50;4.17;;;3.87;;
15230;SDS011;32569;51.762;8.564;2023-12-07T14:01:17;3.90;;;3.70;;
15230;SDS011;32569;51.762;8.564;2023-12-07T14:03:43;3.63;;;3.37;;
15230;SDS011;32569;51.762;8.564;2023-12-07T14:06:20;3.20;;;3.00;;
15230;SDS011;32569;51.762;8.564;2023-12-07T14:08:47;3.57;;;3.37;;
15230;SDS011;32569;51.762;8.564;2023-12-07T14:11:14;3.80;;;3.50;;
15230;SDS011;32569;51.762;8.564;2023-12-07T14:13:41;3.60;;;3.30;;
15230;SDS011;32569;51.762;8.564;2023-12-07T14:16:09;3.37;;;3.17;;
15230;SDS011;32569;51.762;8.564;2023-12-07T14:18:36;3.60;;;3.40;;
15230;SDS011;32569;51.762;8.564;2023-12-07T14:21:02;2.93;;;2.73;;
15230;SDS011;32569;51.762;8.564;2023-12-07T14:23:29;2.90;;;2.70;;
15230;SDS011;32569;51.762;8.564;2023-12-07T14:25:56;3.10;;;2.90;;
15230;SDS011;32569;51.762;8.564;2023-12-07T14:28:24;3.90;;;3.60;;
15230;SDS011;32569;51.762;8.564;2023-12-07T14:30:53;3.37;;;3.17;;
15230;SDS011;32569;51.762;8.564;2023-12-07T14:33:24;3.27;;;3.07;;
15230;SDS011;32569;51.762;8.564;2023-12-07T14:35:52;3.10;;;2.90;;
15230;SDS011;32569;51.762;8.564;2023-12-07T14:38:18;3.37;;;3.17;;